Time;durP1;ratioP1;P1;durP2;ratioP2;P2;SDS_P1;SDS_P2;PMS_P1;PMS_P2;Temp;Humidity;BMP_temperature;BMP_pressure;BME280_temperature;BME280_humidity;BME280_pressure;Samples;Min_cycle;Max_cycle;Signal;HPM_P1;HPM_P2
2023/02/23 00:01:38;;;;;;;30.13;19.23;;;9.60;99.90;;;;;;5076034;28;20579;-84
2023/02/23 00:04:04;;;;;;;28.10;18.52;;;9.60;99.90;;;;;;5075873;28;20185;-83
2023/02/23 00:06:32;;;;;;;31.57;19.87;;;9.60;99.90;;;;;;5075645;28;20165;-82
2023/02/23 00:08:59;;;;;;;29.60;20.20;;;9.60;99.90;;;;;;5075738;28;20224;-83
2023/02/23 00:11:27;;;;;;;34.97;19.58;;;9.60;99.90;;;;;;5075402;28;20311;-83
2023/02/23 00:13:55;;;;;;;34.97;21.17;;;9.60;99.90;;;;;;5075708;28;20208;-82
2023/02/23 00:16:24;;;;;;;37.55;22.27;;;9.60;99.90;;;;;;5075857;28;20172;-84
2023/02/23 00:18:52;;;;;;;36.03;21.10;;;9.70;99.90;;;;;;5074033;28;20609;-83
2023/02/23 00:21:28;;;;;;;31.65;19.58;;;9.80;99.90;;;;;;5075510;28;20176;-83
2023/02/23 00:23:57;;;;;;;34.55;21.17;;;9.70;99.90;;;;;;5075535;28;20205;-83
2023/02/23 00:26:25;;;;;;;40.33;23.20;;;9.80;99.90;;;;;;5075683;28;20531;-83
2023/02/23 00:28:52;;;;;;;42.03;23.67;;;9.80;99.90;;;;;;5074076;28;20568;-83
2023/02/23 00:31:24;;;;;;;42.45;23.42;;;9.80;99.90;;;;;;5074136;28;20173;-81
2023/02/23 00:34:01;;;;;;;44.35;24.55;;;9.90;99.90;;;;;;5075222;28;20251;-84
2023/02/23 00:36:33;;;;;;;36.78;23.52;;;9.90;99.90;;;;;;5074142;28;20189;-83
2023/02/23 00:39:01;;;;;;;35.03;20.05;;;9.80;99.90;;;;;;5073884;28;20200;-81
2023/02/23 00:41:28;;;;;;;34.60;18.95;;;9.80;99.90;;;;;;5075182;28;20223;-84
2023/02/23 00:43:59;;;;;;;29.27;17.00;;;9.80;99.90;;;;;;5075093;28;20197;-83
2023/02/23 00:46:27;;;;;;;24.35;14.57;;;9.80;99.90;;;;;;5073906;28;20177;-83
2023/02/23 00:48:54;;;;;;;23.95;15.10;;;9.90;99.90;;;;;;5073640;28;20197;-84
2023/02/23 00:51:21;;;;;;;19.67;14.57;;;9.90;99.90;;;;;;5073647;28;20181;-84
2023/02/23 00:53:46;;;;;;;21.90;13.93;;;10.00;99.90;;;;;;5074820;28;20735;-83
2023/02/23 00:56:14;;;;;;;20.70;13.87;;;10.00;99.90;;;;;;5073508;28;20177;-83
2023/02/23 00:58:40;;;;;;;14.80;12.05;;;10.00;99.90;;;;;;5073346;28;20250;-83
2023/02/23 01:01:11;;;;;;;23.77;13.38;;;10.10;99.90;;;;;;5073536;28;20212;-83
2023/02/23 01:03:40;;;;;;;17.25;12.00;;;10.00;99.90;;;;;;5073375;28;20275;-84
2023/02/23 01:06:09;;;;;;;16.90;11.70;;;10.10;99.90;;;;;;5073691;28;20227;-83
2023/02/23 01:08:38;;;;;;;18.83;12.35;;;10.10;99.90;;;;;;5073471;28;20231;-83
2023/02/23 01:11:09;;;;;;;20.48;13.23;;;10.20;99.90;;;;;;5074432;28;20623;-84
2023/02/23 01:13:36;;;;;;;19.92;13.25;;;10.20;99.90;;;;;;5073100;28;20220;-83
2023/02/23 01:16:10;;;;;;;21.35;12.52;;;10.20;99.90;;;;;;5072991;28;20181;-84
2023/02/23 01:18:37;;;;;;;17.35;12.55;;;10.30;99.90;;;;;;5073955;28;20191;-83
2023/02/23 01:21:04;;;;;;;25.58;13.25;;;10.30;99.90;;;;;;5073206;28;20267;-82
2023/02/23 01:23:31;;;;;;;21.73;13.23;;;10.30;99.90;;;;;;5074170;28;20231;-83
2023/02/23 01:25:57;;;;;;;17.40;11.88;;;10.40;99.90;;;;;;5073127;28;20580;-83
2023/02/23 01:28:23;;;;;;;16.73;11.63;;;10.40;99.90;;;;;;5072828;28;20201;-82
2023/02/23 01:30:49;;;;;;;19.83;12.63;;;10.50;99.90;;;;;;5074045;28;20176;-83
2023/02/23 01:33:14;;;;;;;16.10;11.70;;;10.40;99.90;;;;;;5074064;28;20220;-83
2023/02/23 01:35:40;;;;;;;18.63;13.70;;;10.40;99.90;;;;;;5073922;28;20422;-83
2023/02/23 01:38:06;;;;;;;19.10;12.03;;;10.50;99.90;;;;;;5074075;28;20662;-84
2023/02/23 01:40:35;;;;;;;19.13;12.77;;;10.60;99.90;;;;;;5072783;28;20556;-83
2023/02/23 01:43:25;;;;;;;16.45;11.80;;;10.60;99.90;;;;;;5073948;28;20185;-83
2023/02/23 01:45:57;;;;;;;48.30;26.88;;;10.70;99.90;;;;;;5072718;28;20545;-83
2023/02/23 01:48:29;;;;;;;31.23;17.30;;;10.60;99.90;;;;;;5074146;28;20257;-84
2023/02/23 01:51:01;;;;;;;29.05;17.95;;;10.50;99.90;;;;;;5073935;28;20173;-84
2023/02/23 01:53:30;;;;;;;29.50;17.98;;;10.40;99.90;;;;;;5072383;28;20221;-81
2023/02/23 01:56:10;;;;;;;29.20;17.77;;;10.40;99.90;;;;;;5072579;28;20169;-82
2023/02/23 01:58:38;;;;;;;29.13;16.08;;;10.50;99.90;;;;;;5072585;28;20700;-83
2023/02/23 02:01:04;;;;;;;27.88;16.02;;;10.50;99.90;;;;;;5073895;28;20494;-84
2023/02/23 02:03:38;;;;;;;26.50;14.65;;;10.60;99.90;;;;;;5073649;28;20185;-83
2023/02/23 02:06:08;;;;;;;26.48;16.25;;;10.50;99.90;;;;;;5073959;28;20172;-82
2023/02/23 02:08:43;;;;;;;27.08;15.82;;;10.40;99.90;;;;;;5073667;28;20193;-82
2023/02/23 02:11:24;;;;;;;23.83;15.48;;;10.40;99.90;;;;;;5076012;28;20692;-82
2023/02/23 02:13:53;;;;;;;29.55;16.52;;;10.40;99.90;;;;;;5072313;28;20311;-84
2023/02/23 02:16:42;;;;;;;25.40;15.40;;;10.40;99.90;;;;;;5072455;28;20184;-83
2023/02/23 02:19:20;;;;;;;24.75;15.98;;;10.40;99.90;;;;;;5073663;28;20172;-83
2023/02/23 02:22:24;;;;;;;26.65;15.55;;;10.40;99.90;;;;;;5073737;28;20168;-83
2023/02/23 02:25:27;;;;;;;32.95;20.88;;;10.50;99.90;;;;;;5073567;28;20697;-84
2023/02/23 02:28:21;;;;;;;53.97;33.40;;;10.50;99.90;;;;;;5072800;28;20211;-84
2023/02/23 02:31:01;;;;;;;41.30;25.02;;;10.40;99.90;;;;;;5077532;28;20596;-83
2023/02/23 02:34:01;;;;;;;31.90;19.77;;;10.40;99.90;;;;;;5076242;28;20228;-84
2023/02/23 02:37:01;;;;;;;30.85;20.80;;;10.40;99.90;;;;;;5076303;28;20184;-83
2023/02/23 02:40:14;;;;;;;22.48;16.08;;;10.40;99.90;;;;;;5076199;28;20189;-82
2023/02/23 02:43:07;;;;;;;32.03;17.50;;;10.40;99.90;;;;;;5076536;28;20205;-82
2023/02/23 02:45:38;;;;;;;34.40;20.38;;;10.50;99.90;;;;;;5077277;28;20177;-83
2023/02/23 02:48:24;;;;;;;36.42;22.75;;;10.50;99.90;;;;;;5077346;28;20568;-83
2023/02/23 02:50:57;;;;;;;36.85;23.67;;;10.40;99.90;;;;;;5077527;28;20161;-83
2023/02/23 02:53:45;;;;;;;28.67;17.35;;;10.40;99.90;;;;;;5075828;28;20319;-82
2023/02/23 02:56:18;;;;;;;23.65;16.05;;;10.40;99.90;;;;;;5077376;28;20165;-84
2023/02/23 02:58:45;;;;;;;23.67;16.05;;;10.40;99.90;;;;;;5075789;28;20637;-84
2023/02/23 04:18:37;;;;;;;15.63;10.50;;;10.30;99.90;;;;;;5075925;28;20201;-84
2023/02/23 04:21:03;;;;;;;17.63;9.73;;;10.50;99.90;;;;;;5074594;28;20267;-84
2023/02/23 04:23:29;;;;;;;22.38;11.18;;;10.70;99.90;;;;;;5075466;28;20685;-85
2023/02/23 04:25:56;;;;;;;19.15;11.63;;;10.80;99.90;;;;;;5074340;28;20181;-82
2023/02/23 04:28:23;;;;;;;17.45;10.13;;;10.90;99.90;;;;;;5074119;28;20208;-82
2023/02/23 04:30:51;;;;;;;15.77;11.45;;;10.90;99.90;;;;;;5075359;28;20177;-84
2023/02/23 04:33:17;;;;;;;18.48;10.88;;;11.00;99.90;;;;;;5073949;28;20225;-83
2023/02/23 04:35:46;;;;;;;18.65;10.68;;;11.00;99.90;;;;;;5075232;28;20192;-84
2023/02/23 04:38:12;;;;;;;16.02;11.52;;;10.90;99.90;;;;;;5073966;28;20204;-85
2023/02/23 04:40:38;;;;;;;23.97;12.03;;;10.90;99.90;;;;;;5073870;28;20208;-84
2023/02/23 04:43:04;;;;;;;19.03;11.63;;;10.90;99.90;;;;;;5075150;28;20437;-83
2023/02/23 04:45:30;;;;;;;19.57;11.43;;;10.90;99.90;;;;;;5073838;28;20630;-83
2023/02/23 04:47:55;;;;;;;24.95;12.02;;;10.90;99.90;;;;;;5073904;28;20686;-82
2023/02/23 04:50:21;;;;;;;24.03;12.60;;;10.90;99.90;;;;;;5073773;28;20263;-82
2023/02/23 04:52:47;;;;;;;19.53;11.17;;;11.00;99.90;;;;;;5074072;28;20213;-83
2023/02/23 04:55:18;;;;;;;21.10;11.70;;;11.10;99.90;;;;;;5074634;28;20174;-84
2023/02/23 04:57:44;;;;;;;17.17;10.70;;;11.10;99.90;;;;;;5073417;28;20473;-83
2023/02/23 05:00:11;;;;;;;22.33;11.17;;;11.20;99.90;;;;;;5073478;28;20611;-82
2023/02/23 05:02:37;;;;;;;20.15;11.70;;;11.20;99.90;;;;;;5073459;28;20231;-84
2023/02/23 05:05:03;;;;;;;19.98;11.80;;;11.30;99.90;;;;;;5074761;28;20180;-84
2023/02/23 05:07:29;;;;;;;20.00;11.60;;;11.30;99.90;;;;;;5074922;28;20242;-83
2023/02/23 05:09:55;;;;;;;17.30;11.40;;;11.30;99.90;;;;;;5074695;28;20178;-84
2023/02/23 05:12:20;;;;;;;21.42;13.55;;;11.30;99.90;;;;;;5073935;28;20229;-82
2023/02/23 05:14:46;;;;;;;20.00;14.40;;;11.30;99.90;;;;;;5073139;28;20183;-83
2023/02/23 05:17:12;;;;;;;23.93;15.77;;;11.20;99.90;;;;;;5073162;28;20193;-84
2023/02/23 05:19:38;;;;;;;20.87;11.80;;;11.10;99.90;;;;;;5074409;28;20645;-83
2023/02/23 05:22:03;;;;;;;16.03;10.47;;;11.00;99.90;;;;;;5073174;28;20597;-84
2023/02/23 05:24:29;;;;;;;19.37;13.33;;;11.00;99.90;;;;;;5073076;28;20638;-82
2023/02/23 05:26:55;;;;;;;21.63;14.20;;;11.00;99.90;;;;;;5079261;28;20176;-84
2023/02/23 05:29:20;;;;;;;20.50;13.20;;;11.00;99.90;;;;;;5094430;28;20210;-82
2023/02/23 05:31:47;;;;;;;21.10;12.53;;;10.90;99.90;;;;;;5089074;28;20177;-84
2023/02/23 05:34:13;;;;;;;17.55;11.90;;;10.90;99.90;;;;;;5072731;28;20568;-83
2023/02/23 05:36:38;;;;;;;19.27;11.37;;;11.00;99.90;;;;;;5072796;28;20173;-84
2023/02/23 05:39:04;;;;;;;28.20;16.50;;;11.00;99.90;;;;;;5076699;28;20418;-81
2023/02/23 05:41:30;;;;;;;23.47;14.90;;;11.00;99.90;;;;;;5077255;28;20702;-84
2023/02/23 05:43:56;;;;;;;20.20;12.73;;;11.10;99.90;;;;;;5072753;28;20313;-84
2023/02/23 05:46:25;;;;;;;28.53;12.50;;;10.90;99.90;;;;;;5074025;28;20418;-84
2023/02/23 05:48:56;;;;;;;20.50;11.20;;;10.60;99.90;;;;;;5073860;28;20200;-83
2023/02/23 05:51:21;;;;;;;16.08;11.27;;;10.40;99.90;;;;;;5072830;28;20258;-84
2023/02/23 05:53:47;;;;;;;19.90;11.30;;;10.20;99.90;;;;;;5074598;28;20258;-82
2023/02/23 05:56:21;;;;;;;22.17;11.83;;;10.10;99.90;;;;;;5093606;28;20197;-83
2023/02/23 05:58:51;;;;;;;20.25;11.95;;;10.10;99.90;;;;;;5077396;28;20576;-83
2023/02/23 06:01:18;;;;;;;18.65;9.82;;;10.10;99.90;;;;;;5073848;28;20203;-81
2023/02/23 06:03:44;;;;;;;15.63;9.80;;;10.00;99.90;;;;;;5091408;28;20261;-84
2023/02/23 06:06:10;;;;;;;12.82;8.75;;;10.00;99.90;;;;;;5092516;28;20655;-83
2023/02/23 06:08:37;;;;;;;18.50;10.55;;;10.00;99.90;;;;;;5093724;28;20246;-84
2023/02/23 06:11:03;;;;;;;17.52;10.38;;;10.00;99.90;;;;;;5088065;28;20176;-84
2023/02/23 06:13:30;;;;;;;15.40;9.55;;;10.00;99.90;;;;;;5091717;28;20495;-84
2023/02/23 06:15:58;;;;;;;15.93;10.23;;;10.00;99.90;;;;;;5090889;28;20173;-82
2023/02/23 06:18:24;;;;;;;20.27;10.98;;;10.00;99.90;;;;;;5092410;28;20192;-82
2023/02/23 06:20:50;;;;;;;18.67;11.55;;;10.10;99.90;;;;;;5087723;28;20649;-84
2023/02/23 06:23:16;;;;;;;17.00;10.63;;;10.10;99.90;;;;;;5090549;28;20257;-83
2023/02/23 06:25:46;;;;;;;15.07;10.55;;;10.10;99.90;;;;;;5089410;28;20421;-82
2023/02/23 06:28:12;;;;;;;17.08;10.27;;;10.00;99.90;;;;;;5085129;28;20303;-82
2023/02/23 06:30:38;;;;;;;24.17;11.75;;;10.00;99.90;;;;;;5088538;28;20161;-82
2023/02/23 06:33:05;;;;;;;18.73;10.77;;;9.90;99.90;;;;;;5088563;28;20231;-84
2023/02/23 06:35:31;;;;;;;21.92;10.90;;;9.90;99.90;;;;;;5084482;28;20175;-84
2023/02/23 06:37:58;;;;;;;17.95;10.98;;;9.90;99.90;;;;;;5091559;28;20203;-82
2023/02/23 06:40:24;;;;;;;17.77;10.02;;;9.80;99.90;;;;;;5091919;28;20176;-84
2023/02/23 06:42:49;;;;;;;17.07;10.47;;;9.80;99.90;;;;;;5091941;28;20623;-84
2023/02/23 06:45:16;;;;;;;21.57;11.20;;;9.80;99.90;;;;;;5092430;28;20811;-81
2023/02/23 06:47:41;;;;;;;18.27;11.80;;;9.80;99.90;;;;;;5092924;28;20255;-82
2023/02/23 06:50:08;;;;;;;18.23;11.07;;;9.90;99.90;;;;;;5089738;28;20176;-82
2023/02/23 06:52:34;;;;;;;18.05;11.10;;;10.00;99.90;;;;;;5072482;28;20213;-83
2023/02/23 06:54:59;;;;;;;17.73;11.87;;;10.00;99.90;;;;;;5070773;28;20188;-83
2023/02/23 06:57:25;;;;;;;20.93;10.70;;;10.10;99.90;;;;;;5069772;28;20212;-83
2023/02/23 06:59:52;;;;;;;21.17;12.00;;;10.20;99.90;;;;;;5070910;28;20173;-82
2023/02/23 07:02:18;;;;;;;20.67;11.43;;;10.30;99.90;;;;;;5070936;28;20194;-83
2023/02/23 07:04:44;;;;;;;22.95;11.38;;;10.30;99.90;;;;;;5069049;28;20178;-82
2023/02/23 07:07:10;;;;;;;16.30;10.77;;;10.40;99.90;;;;;;5070499;28;20212;-82
2023/02/23 07:09:35;;;;;;;17.03;10.40;;;10.40;99.90;;;;;;5089332;28;20259;-82
2023/02/23 07:12:03;;;;;;;20.17;11.17;;;10.50;99.90;;;;;;5089471;28;20492;-83
2023/02/23 07:14:28;;;;;;;17.55;10.55;;;10.60;99.90;;;;;;5090072;28;20910;-83
2023/02/23 07:16:54;;;;;;;21.47;10.50;;;10.70;99.90;;;;;;5094318;28;20241;-84
2023/02/23 07:19:20;;;;;;;20.50;12.30;;;10.80;99.90;;;;;;5093427;28;20263;-83
2023/02/23 07:21:45;;;;;;;18.67;11.40;;;10.90;99.90;;;;;;5094350;28;20271;-83
2023/02/23 07:24:11;;;;;;;21.93;11.30;;;11.00;99.90;;;;;;5076081;28;20181;-83
2023/02/23 07:26:39;;;;;;;15.95;10.45;;;11.10;99.90;;;;;;5080591;28;20177;-82
2023/02/23 07:29:05;;;;;;;15.77;10.23;;;11.20;99.90;;;;;;5093574;28;20633;-84
2023/02/23 07:31:31;;;;;;;18.57;10.50;;;11.30;99.90;;;;;;5066409;28;20207;-82
2023/02/23 07:33:56;;;;;;;18.07;9.90;;;11.50;99.90;;;;;;5062925;28;20239;-84
2023/02/23 07:36:23;;;;;;;21.67;11.13;;;11.60;99.90;;;;;;5063425;28;20184;-83
2023/02/23 07:38:49;;;;;;;14.82;9.88;;;11.70;99.90;;;;;;5060705;28;20216;-83
2023/02/23 07:41:14;;;;;;;22.80;11.23;;;11.80;99.90;;;;;;5059163;28;20241;-83
2023/02/23 07:43:40;;;;;;;18.07;10.20;;;11.90;99.90;;;;;;5060603;28;20200;-82
2023/02/23 07:46:07;;;;;;;18.13;10.70;;;12.00;99.90;;;;;;5063146;28;20807;-84
2023/02/23 07:48:33;;;;;;;15.77;10.60;;;12.20;99.90;;;;;;5073677;28;20201;-82
2023/02/23 07:50:58;;;;;;;20.47;11.50;;;12.30;99.90;;;;;;5079250;28;20173;-84
2023/02/23 07:53:26;;;;;;;17.63;10.20;;;12.40;99.90;;;;;;5070434;28;20481;-83
2023/02/23 07:55:59;;;;;;;19.85;10.25;;;12.50;99.90;;;;;;5072314;28;20166;-83
2023/02/23 07:58:25;;;;;;;17.42;9.55;;;12.70;99.90;;;;;;5071344;28;20602;-82
2023/02/23 08:00:51;;;;;;;14.43;9.70;;;13.00;99.90;;;;;;5072490;28;20660;-82
2023/02/23 08:03:17;;;;;;;14.70;9.93;;;13.20;99.90;;;;;;5079921;28;20433;-83
2023/02/23 08:05:43;;;;;;;11.10;8.80;;;13.50;99.90;;;;;;5084122;28;20418;-84
2023/02/23 08:08:10;;;;;;;14.57;10.27;;;14.10;99.90;;;;;;5086397;28;20267;-83
2023/02/23 08:10:36;;;;;;;17.97;9.27;;;14.70;99.00;;;;;;5091064;28;20409;-83
2023/02/23 08:13:02;;;;;;;14.70;9.63;;;15.50;98.10;;;;;;5093279;28;20481;-84
2023/02/23 08:15:28;;;;;;;14.87;9.17;;;16.40;96.80;;;;;;5078029;28;20417;-84
2023/02/23 08:17:54;;;;;;;18.23;9.40;;;17.30;95.30;;;;;;5078252;28;20814;-84
2023/02/23 08:20:20;;;;;;;14.80;8.60;;;18.20;93.40;;;;;;5082481;28;20405;-84
2023/02/23 08:22:46;;;;;;;11.40;7.33;;;18.90;92.10;;;;;;5081145;28;20197;-84
2023/02/23 08:25:11;;;;;;;13.73;8.53;;;19.60;91.00;;;;;;5080438;28;20243;-84
2023/02/23 08:27:37;;;;;;;11.03;8.17;;;20.30;89.00;;;;;;5085741;28;20453;-84
2023/02/23 08:30:04;;;;;;;15.30;9.20;;;21.00;86.60;;;;;;5082456;28;20184;-84
2023/02/23 08:32:34;;;;;;;10.30;9.13;;;21.60;84.40;;;;;;5083211;28;20547;-85
2023/02/23 08:35:03;;;;;;;12.27;8.23;;;22.30;82.00;;;;;;5080031;28;20865;-84
2023/02/23 08:37:29;;;;;;;11.17;8.30;;;22.70;81.10;;;;;;5082266;28;20492;-84
2023/02/23 08:39:55;;;;;;;11.10;7.60;;;23.30;77.40;;;;;;5084849;28;20421;-83
2023/02/23 08:42:21;;;;;;;10.53;7.87;;;23.70;75.70;;;;;;5080544;28;20741;-83
2023/02/23 08:44:49;;;;;;;9.77;7.07;;;24.10;74.60;;;;;;5082985;28;20473;-84
2023/02/23 08:47:22;;;;;;;10.10;8.00;;;24.50;71.60;;;;;;5080167;28;20205;-83
2023/02/23 08:49:50;;;;;;;13.07;6.97;;;24.80;70.20;;;;;;5078872;28;20781;-83
2023/02/23 08:52:16;;;;;;;10.87;7.57;;;25.20;68.30;;;;;;5081956;28;20468;-84
2023/02/23 08:54:42;;;;;;;84.37;42.77;;;25.40;67.30;;;;;;5081961;28;20996;-83
2023/02/23 08:57:07;;;;;;;35.43;19.77;;;25.70;66.30;;;;;;5080051;28;20468;-85
2023/02/23 08:59:33;;;;;;;21.70;16.93;;;26.00;65.40;;;;;;5067258;28;21053;-83
2023/02/23 09:01:59;;;;;;;13.80;9.27;;;26.20;65.90;;;;;;5064690;28;20228;-84
2023/02/23 09:04:24;;;;;;;11.73;8.60;;;26.50;65.10;;;;;;5066995;28;20191;-83
2023/02/23 09:06:50;;;;;;;11.13;8.10;;;26.70;64.60;;;;;;5077856;28;20178;-84
2023/02/23 09:09:16;;;;;;;14.53;8.83;;;27.00;63.90;;;;;;5079079;28;20172;-83
2023/02/23 09:11:42;;;;;;;11.57;8.93;;;27.20;63.70;;;;;;5076729;28;20661;-85
2023/02/23 09:14:08;;;;;;;9.40;7.63;;;27.30;62.90;;;;;;5078823;28;20407;-86
2023/02/23 09:16:35;;;;;;;21.57;19.20;;;27.30;62.70;;;;;;5079471;28;20185;-83
2023/02/23 09:19:02;;;;;;;33.13;29.50;;;27.50;62.20;;;;;;5082109;28;20461;-84
2023/02/23 09:21:29;;;;;;;12.23;10.90;;;27.50;61.50;;;;;;5078540;28;20425;-85
2023/02/23 09:23:55;;;;;;;11.77;9.67;;;27.30;61.30;;;;;;5078252;28;20811;-85
2023/02/23 09:26:23;;;;;;;13.40;11.30;;;27.00;60.90;;;;;;5077050;28;20442;-84
2023/02/23 09:28:49;;;;;;;10.27;7.40;;;26.60;60.90;;;;;;5081089;28;20455;-84
2023/02/23 09:31:18;;;;;;;8.83;7.13;;;26.10;60.80;;;;;;5077504;28;20476;-83
2023/02/23 09:33:44;;;;;;;69.20;39.67;;;25.70;60.70;;;;;;5069867;28;20479;-84
2023/02/23 09:36:14;;;;;;;29.80;22.57;;;24.90;61.70;;;;;;5077771;28;20937;-84
2023/02/23 09:38:39;;;;;;;49.43;35.83;;;24.30;62.40;;;;;;5086598;28;20674;-83
2023/02/23 09:41:30;;;;;;;33.23;24.47;;;23.90;63.20;;;;;;5087945;28;20437;-83
2023/02/23 09:44:07;;;;;;;43.33;31.60;;;23.40;64.10;;;;;;5086580;28;20684;-83
2023/02/23 09:46:52;;;;;;;20.23;12.97;;;23.20;64.70;;;;;;5079106;28;20429;-83
2023/02/23 09:49:23;;;;;;;16.20;11.40;;;23.00;64.30;;;;;;5062944;28;21168;-84
2023/02/23 09:51:56;;;;;;;10.40;7.70;;;22.80;65.30;;;;;;5063966;28;20410;-84
2023/02/23 09:54:23;;;;;;;19.40;12.47;;;22.60;64.80;;;;;;5064758;28;20426;-85
2023/02/23 09:56:51;;;;;;;15.43;8.20;;;22.40;65.10;;;;;;5075348;28;20425;-84
2023/02/23 09:59:20;;;;;;;14.10;8.90;;;22.00;66.00;;;;;;5074637;28;20406;-85
2023/02/23 10:02:16;;;;;;;9.90;7.70;;;21.40;67.00;;;;;;5075511;28;20804;-84
2023/02/23 10:04:48;;;;;;;83.33;54.27;;;20.90;68.00;;;;;;5069627;28;20439;-86
2023/02/23 10:07:17;;;;;;;11.87;8.60;;;20.50;68.50;;;;;;5085921;28;20439;-85
2023/02/23 10:10:15;;;;;;;10.50;9.20;;;20.40;68.70;;;;;;5086193;28;20424;-85
2023/02/23 10:13:03;;;;;;;12.30;9.10;;;20.00;69.30;;;;;;5086185;28;20482;-85
2023/02/23 10:15:51;;;;;;;10.97;8.37;;;19.80;69.70;;;;;;5087500;28;20448;-84
2023/02/23 10:18:56;;;;;;;11.10;8.80;;;19.40;70.70;;;;;;5088345;28;20482;-83
2023/02/23 10:21:34;;;;;;;10.20;8.80;;;19.50;70.70;;;;;;5078542;28;20447;-84
2023/02/23 10:24:19;;;;;;;10.47;9.00;;;19.60;70.30;;;;;;5079513;28;20445;-83
2023/02/23 10:26:55;;;;;;;10.33;8.40;;;19.70;70.10;;;;;;5072020;28;20432;-83
2023/02/23 10:29:50;;;;;;;10.33;8.10;;;19.40;70.70;;;;;;5074915;28;20436;-83
2023/02/23 10:32:37;;;;;;;11.83;8.80;;;19.30;71.30;;;;;;5067687;28;20468;-84
2023/02/23 10:35:15;;;;;;;11.93;8.50;;;19.30;72.00;;;;;;5072729;28;20458;-82
2023/02/23 10:37:41;;;;;;;11.63;8.87;;;19.40;72.00;;;;;;5086923;28;20454;-84
2023/02/23 10:40:17;;;;;;;12.73;8.07;;;19.40;74.20;;;;;;5082960;28;20961;-83
2023/02/23 10:42:43;;;;;;;9.37;8.07;;;19.20;71.70;;;;;;5079757;28;20729;-84
2023/02/23 10:45:23;;;;;;;12.73;8.53;;;18.70;71.70;;;;;;5076815;28;20436;-83
2023/02/23 10:48:05;;;;;;;13.83;9.33;;;18.30;72.80;;;;;;5084186;28;20547;-83
2023/02/23 10:50:32;;;;;;;10.00;7.70;;;18.20;73.40;;;;;;5093380;28;20823;-84
2023/02/23 10:53:25;;;;;;;10.90;7.70;;;18.40;73.20;;;;;;5076525;28;20698;-83
2023/02/23 10:56:18;;;;;;;11.23;7.50;;;18.60;73.40;;;;;;5082357;28;20433;-84
2023/02/23 10:58:47;;;;;;;10.07;6.77;;;18.60;73.20;;;;;;5085255;28;20465;-85
2023/02/23 11:01:35;;;;;;;10.13;7.53;;;18.50;72.80;;;;;;5084638;28;20436;-82
2023/02/23 11:04:25;;;;;;;10.80;7.90;;;18.60;73.00;;;;;;5088682;28;20664;-84
2023/02/23 11:07:05;;;;;;;13.63;10.10;;;18.50;73.40;;;;;;5090662;28;20429;-83
2023/02/23 11:09:32;;;;;;;12.47;7.20;;;18.60;73.40;;;;;;5081631;28;20515;-83
2023/02/23 11:12:21;;;;;;;9.90;8.10;;;18.70;73.50;;;;;;5081549;28;20568;-84
2023/02/23 11:14:52;;;;;;;11.60;8.07;;;18.70;73.20;;;;;;5075865;28;20431;-85
2023/02/23 11:17:36;;;;;;;7.00;6.30;;;18.60;72.90;;;;;;5083116;28;20441;-85
2023/02/23 11:20:23;;;;;;;13.80;7.83;;;18.60;73.80;;;;;;5094583;28;20428;-82
2023/02/23 11:22:51;;;;;;;130.90;70.10;;;18.70;73.60;;;;;;5073841;28;20504;-84
2023/02/23 11:25:26;;;;;;;12.50;8.90;;;18.60;74.10;;;;;;5085687;28;20786;-84
2023/02/23 11:27:55;;;;;;;13.00;7.63;;;18.70;74.30;;;;;;5090669;28;20437;-84
2023/02/23 11:30:28;;;;;;;9.40;7.60;;;18.80;74.50;;;;;;5089763;28;20427;-82
2023/02/23 11:32:57;;;;;;;8.70;6.53;;;18.80;74.60;;;;;;5087569;28;20814;-84
2023/02/23 11:35:25;;;;;;;11.20;7.53;;;19.00;74.90;;;;;;5074894;28;20579;-84
2023/02/23 11:37:52;;;;;;;10.67;7.63;;;19.00;74.40;;;;;;5088697;28;20462;-82
2023/02/23 11:40:21;;;;;;;9.57;6.97;;;19.10;75.50;;;;;;5083188;28;20517;-83
2023/02/23 11:43:15;;;;;;;13.80;7.90;;;19.10;75.60;;;;;;5083654;28;20472;-83
2023/02/23 11:45:43;;;;;;;15.23;7.63;;;19.20;75.40;;;;;;5082876;28;20437;-83
2023/02/23 11:48:27;;;;;;;11.37;6.67;;;19.10;75.30;;;;;;5079965;28;20448;-84
2023/02/23 11:50:54;;;;;;;11.30;7.37;;;19.10;75.20;;;;;;5080580;28;20837;-84
2023/02/23 11:53:33;;;;;;;9.17;7.73;;;18.80;75.00;;;;;;5081256;28;20976;-84
2023/02/23 11:56:06;;;;;;;11.10;8.00;;;18.60;75.50;;;;;;5081886;28;20538;-83
2023/02/23 11:58:39;;;;;;;10.20;6.40;;;18.60;75.80;;;;;;5080503;28;20457;-85
2023/02/23 12:01:12;;;;;;;12.30;7.20;;;18.50;76.40;;;;;;5075741;28;20513;-84
2023/02/23 12:03:50;;;;;;;10.90;7.03;;;18.60;76.10;;;;;;5079579;28;20484;-84
2023/02/23 12:06:29;;;;;;;19.30;7.13;;;18.70;76.10;;;;;;5083892;28;20834;-84
2023/02/23 12:09:02;;;;;;;10.47;6.80;;;18.80;75.80;;;;;;5079238;28;20460;-84
2023/02/23 12:11:31;;;;;;;7.30;6.23;;;18.80;77.70;;;;;;5077053;28;20949;-81
2023/02/23 12:14:23;;;;;;;11.00;6.67;;;18.70;77.40;;;;;;5082676;28;20471;-82
2023/02/23 12:16:55;;;;;;;38.17;10.20;;;18.70;76.50;;;;;;5080520;28;20507;-82
2023/02/23 12:19:24;;;;;;;16.73;9.63;;;18.70;76.10;;;;;;5074197;28;21039;-82
2023/02/23 12:22:04;;;;;;;14.00;7.43;;;18.50;76.30;;;;;;5085964;28;20436;-82
2023/02/23 12:24:33;;;;;;;11.53;6.80;;;18.40;75.80;;;;;;5079289;28;20454;-81
2023/02/23 12:27:36;;;;;;;11.23;7.03;;;18.30;75.40;;;;;;5073001;28;20483;-82
2023/02/23 12:30:22;;;;;;;11.77;7.80;;;18.10;76.50;;;;;;5079044;28;20961;-81
2023/02/23 12:33:02;;;;;;;8.60;7.53;;;18.00;77.00;;;;;;5084714;28;20486;-82
2023/02/23 12:35:59;;;;;;;10.00;6.70;;;18.00;77.00;;;;;;5077598;28;20460;-83
2023/02/23 12:39:03;;;;;;;8.83;6.90;;;17.90;77.10;;;;;;5069797;28;20473;-83
2023/02/23 12:41:39;;;;;;;11.27;7.50;;;18.00;77.20;;;;;;5090626;28;20451;-83
2023/02/23 12:44:32;;;;;;;11.30;7.40;;;18.00;77.50;;;;;;5075164;28;20426;-83
2023/02/23 12:47:05;;;;;;;11.37;7.73;;;17.90;78.40;;;;;;5063297;28;20504;-82
2023/02/23 12:49:45;;;;;;;12.60;7.30;;;17.80;78.40;;;;;;5083217;28;20433;-83
2023/02/23 12:52:18;;;;;;;12.30;7.73;;;17.80;78.50;;;;;;5082842;28;20464;-81
2023/02/23 12:54:45;;;;;;;10.03;7.40;;;17.80;78.50;;;;;;5081332;28;20475;-83
2023/02/23 12:57:31;;;;;;;8.70;7.10;;;17.70;79.00;;;;;;5078882;28;20460;-82
2023/02/23 13:00:29;;;;;;;10.03;7.57;;;17.80;78.90;;;;;;5072607;28;20448;-84
2023/02/23 13:02:57;;;;;;;13.23;8.47;;;17.90;78.30;;;;;;5087067;28;20917;-83
2023/02/23 13:05:33;;;;;;;12.80;7.00;;;18.00;79.20;;;;;;5086595;28;20425;-82
2023/02/23 13:08:24;;;;;;;14.00;7.17;;;17.90;78.60;;;;;;5086625;28;20985;-84
2023/02/23 13:11:02;;;;;;;10.00;6.93;;;17.90;78.30;;;;;;5085343;28;20477;-84
2023/02/23 13:13:33;;;;;;;8.73;6.60;;;17.90;78.00;;;;;;5082341;28;20538;-84
2023/02/23 13:16:23;;;;;;;9.50;7.10;;;17.80;78.70;;;;;;5079999;28;20839;-82
2023/02/23 13:18:51;;;;;;;9.20;6.77;;;17.90;78.80;;;;;;5077618;28;20493;-84
2023/02/23 13:22:05;;;;;;;8.07;6.50;;;17.90;79.40;;;;;;5071859;28;20433;-83
2023/02/23 13:24:36;;;;;;;8.67;7.10;;;17.90;77.30;;;;;;5042045;28;20522;-84
2023/02/23 13:27:18;;;;;;;10.63;7.20;;;17.80;78.00;;;;;;5081919;28;21650;-82
2023/02/23 13:29:51;;;;;;;9.40;6.50;;;17.80;78.70;;;;;;5084028;28;20445;-84
2023/02/23 13:32:28;;;;;;;13.60;7.20;;;17.70;78.40;;;;;;5079222;28;20568;-84
2023/02/23 13:34:57;;;;;;;9.93;7.90;;;17.80;78.90;;;;;;5083129;28;20785;-82
2023/02/23 13:37:44;;;;;;;9.27;7.80;;;17.80;78.60;;;;;;5078850;28;20449;-84
2023/02/23 13:40:37;;;;;;;10.33;6.43;;;17.90;78.30;;;;;;5079656;28;20432;-82
2023/02/23 13:43:21;;;;;;;8.83;7.23;;;17.90;78.10;;;;;;5086702;28;20555;-82
2023/02/23 13:46:16;;;;;;;10.30;6.87;;;18.00;78.40;;;;;;5104778;28;20471;-83
2023/02/23 13:49:00;;;;;;;8.53;6.43;;;18.10;78.50;;;;;;5082121;28;20475;-84
2023/02/23 13:51:44;;;;;;;11.10;7.47;;;18.10;78.40;;;;;;5080134;28;20437;-82
2023/02/23 13:54:12;;;;;;;8.00;7.10;;;18.20;77.70;;;;;;5087382;28;20678;-84
2023/02/23 13:56:46;;;;;;;8.30;6.20;;;18.20;77.80;;;;;;5087428;28;20433;-82
2023/02/23 13:59:32;;;;;;;10.80;7.00;;;18.20;78.70;;;;;;5081322;28;20442;-84
2023/02/23 14:02:31;;;;;;;7.13;6.20;;;18.20;77.40;;;;;;5081959;28;20472;-83
2023/02/23 14:05:24;;;;;;;9.70;6.93;;;18.20;77.40;;;;;;5084011;28;20524;-84
2023/02/23 14:07:57;;;;;;;10.47;6.60;;;18.00;77.80;;;;;;5077471;28;20510;-82
2023/02/23 14:10:34;;;;;;;10.17;7.60;;;17.90;78.00;;;;;;5084187;28;20823;-82
2023/02/23 14:13:08;;;;;;;14.13;8.83;;;18.00;77.90;;;;;;5081283;28;20494;-82
2023/02/23 14:15:34;;;;;;;12.13;8.23;;;18.00;77.90;;;;;;5075751;28;20779;-83
2023/02/23 14:18:28;;;;;;;12.90;8.93;;;18.00;77.60;;;;;;5095217;28;20813;-82